• Join FlightAware (Why Join?)
  • Login
  • US Flag 
07:11AM EDT


 

Airport Tracker/Info


-or-


 

Live Flight TrackerFlight Track Log ✈ OPT469 ✈ 17-Apr-2012 ✈ KTPA - KDAL

Flight Track Log - Related Links

Times and Time Zones

All times are in EDT time to prevent confusion due to time zone crossing. See the OPT469 flight status page for this flight to view local times or setup timezone preferences in your user account.

Time Position Orientation Groundspeed Altitude Reporting Facility
EDT Latitude Longitude Course Direction KTS MPH feet Rate Location/Type
12:21PM 27.9667 -82.5333 211° Southwest 163 188 600  Level Tampa TRACON
12:22PM 27.9167 -82.5667 211° Southwest 181 208 3,400 2,340 Climbing Tampa TRACON
12:23PM 27.8667 -82.6000 236° Southwest 206 237 5,800 1,860 Climbing Tampa TRACON
12:25PM 27.7972 -82.7172 246° West 243 280 9,100 1,500 Climbing Miami Center
12:26PM 27.7647 -82.8000 244° Southwest 271 312 10,400 1,320 Climbing Miami Center
12:27PM 27.7278 -82.8872 252° West 297 342 11,800 1,320 Climbing Miami Center
12:28PM 27.7008 -82.9819 266° West 312 359 13,100 1,260 Climbing Miami Center
12:29PM 27.6942 -83.0869 269° West 321 369 14,400 1,320 Climbing Miami Center
12:30PM 27.6917 -83.1947 266° West 340 391 15,800 1,320 Climbing Miami Center
12:31PM 27.6847 -83.3019 270° West 345 397 17,100 1,200 Climbing Miami Center
12:32PM 27.6842 -83.4075 270° West 345 397 18,200 1,200 Climbing Miami Center
12:33PM 27.6833 -83.5150 266° West 345 397 19,500 1,320 Climbing Miami Center
12:34PM 27.6764 -83.6178 271° West 345 397 20,900 1,320 Climbing Miami Center
12:35PM 27.6775 -83.7256 266° West 345 397 22,200 1,140 Climbing Miami Center
12:36PM 27.6703 -83.8353 266° West 345 397 23,200 1,080 Climbing Miami Center
12:37PM 27.6625 -83.9519 267° West 355 409 24,400 1,200 Climbing Miami Center
12:38PM 27.6569 -84.0639 283° West 361 415 25,600 1,200 Climbing Miami Center
12:39PM 27.6803 -84.1778 284° West 366 421 26,800 1,200 Climbing Miami Center
12:40PM 27.7058 -84.2917 281° West 372 428 28,100 1,200 Climbing Miami Center
12:41PM 27.7250 -84.4056 282° West 372 428 29,300 1,200 Climbing Miami Center
12:42PM 27.7461 -84.5147 282° West 372 428 30,500 1,140 Climbing Miami Center
12:43PM 27.7708 -84.6514 283° West 375 432 31,900 1,020 Climbing Jacksonville Center
12:44PM 27.7942 -84.7692 287° West 363 418 32,900 960 Climbing Jacksonville Center
12:45PM 27.8239 -84.8775 289° West 363 418 33,900 900 Climbing Jacksonville Center
12:46PM 27.8556 -84.9814 287° West 351 404 34,800 900 Climbing Jacksonville Center
12:47PM 27.8831 -85.0853 289° West 346 398 35,700 840 Climbing Jacksonville Center
12:48PM 27.9125 -85.1847 290° West 346 398 36,500 780 Climbing Jacksonville Center
12:49PM 27.9442 -85.2839 288° West 341 392 37,300 600 Climbing Jacksonville Center
12:50PM 27.9736 -85.3858 288° West 341 392 37,800 300 Climbing Jacksonville Center
12:51PM 28.0028 -85.4875 286° West 346 398 38,000 300 Climbing Jacksonville Center
12:52PM 28.0297 -85.5939 288° West 344 396 38,500 480 Climbing Jacksonville Center
12:53PM 28.0589 -85.6958 290° West 339 390 39,000 420 Climbing Jacksonville Center
12:54PM 28.0900 -85.7931 286° West 339 390 39,400 300 Climbing Jacksonville Center
12:55PM 28.1169 -85.8975 289° West 339 390 39,700 300 Climbing Jacksonville Center
12:56PM 28.1461 -85.9925 288° West 339 390 40,000 120 Climbing Jacksonville Center
12:57PM 28.1747 -86.0947 288° West 339 390 40,000  Level Jacksonville Center
12:58PM 28.2036 -86.1967 287° West 352 405 40,000  Level Jacksonville Center
12:59PM 28.2319 -86.3036 290° West 344 396 40,000  Level Jacksonville Center
01:00PM 28.2686 -86.4203 286° West 360 414 40,000  Level Jacksonville Center
01:01PM 28.2928 -86.5178 289° West 360 414 40,000  Level Jacksonville Center
01:02PM 28.3292 -86.6369 287° West 373 429 40,000  Level Jacksonville Center
01:03PM 28.3592 -86.7489 287° West 373 429 40,000  Level Jacksonville Center
01:04PM 28.3892 -86.8611 288° West 368 423 40,000  Level Jacksonville Center
01:05PM 28.4211 -86.9731 286° West 373 429 40,000  Level Jacksonville Center
01:06PM 28.4489 -87.0828 290° West 368 423 40,000  Level Jacksonville Center
01:07PM 28.4828 -87.1906 287° West 374 430 40,000 -60 Level Jacksonville Center
01:08PM 28.5106 -87.2933 287° West 382 440 39,900  Descending Jacksonville Center
01:09PM 28.5439 -87.4175 287° West 382 440 40,000  Climbing Jacksonville Center
01:11PM 28.6206 -87.6967 288° West 387 445 39,900  Descending Houston Center
01:12PM 28.6531 -87.8114 287° West 390 449 40,000  Climbing Houston Center
01:13PM 28.6853 -87.9286 286° West 383 441 40,000  Level Houston Center
01:14PM 28.7133 -88.0389 289° West 382 440 40,000  Level Houston Center
01:15PM 28.7478 -88.1539 305° West 355 409 40,000  Level Houston Center
01:16PM 28.8086 -88.2539 304° West 360 414 40,000  Level Houston Center
01:17PM 28.8675 -88.3539 305° West 371 427 40,000  Level Houston Center
01:18PM 28.9283 -88.4517 306° West 376 433 40,000 -60 Level Houston Center
01:19PM 28.9892 -88.5472 305° West 376 433 39,900  Descending Houston Center
01:20PM 29.0456 -88.6406 306° West 371 427 40,000  Climbing Houston Center
01:21PM 29.1039 -88.7342 303° West 366 421 40,000  Level Houston Center
01:22PM 29.1581 -88.8300 305° West 366 421 40,000 -60 Level Houston Center
01:23PM 29.2164 -88.9261 304° West 366 421 39,900  Descending Houston Center
01:24PM 29.2725 -89.0200 303° West 366 421 40,000  Climbing Houston Center
01:25PM 29.3286 -89.1186 304° West 366 421 40,000  Level Houston Center
01:26PM 29.3825 -89.2103 305° West 366 421 40,000  Level Houston Center
01:27PM 29.4408 -89.3067 304° West 366 421 40,000 -60 Level Houston Center
01:28PM 29.4967 -89.4031 303° West 366 421 39,900  Descending Houston Center
01:29PM 29.5525 -89.5022 305° West 366 421 40,000  Climbing Houston Center
01:30PM 29.6103 -89.5967 305° West 366 421 40,000 -60 Level Houston Center
01:31PM 29.6681 -89.6911 303° West 366 421 39,900  Descending Houston Center
01:32PM 29.7258 -89.7928 304° West 366 421 40,000  Climbing Houston Center
01:33PM 29.7817 -89.8900 303° West 371 427 40,000 -60 Level Houston Center
01:34PM 29.8369 -89.9897 305° West 371 427 39,900  Descending Houston Center
01:35PM 29.8967 -90.0869 304° West 371 427 40,000  Climbing Houston Center
01:36PM 29.9542 -90.1867 303° West 371 427 40,000  Level Houston Center
01:37PM 30.0117 -90.2889 303° West 371 427 40,000  Level Houston Center
01:38PM 30.0689 -90.3892 305° West 371 427 40,000 -60 Level Houston Center
01:39PM 30.1283 -90.4892 303° West 371 427 39,900  Descending Houston Center
01:40PM 30.1856 -90.5894 304° West 371 427 40,000  Climbing Houston Center
01:41PM 30.2447 -90.6897 303° West 371 427 40,000  Level Houston Center
01:42PM 30.3017 -90.7928 304° West 371 427 40,000  Level Houston Center
01:43PM 30.3608 -90.8956 304° West 371 427 40,000  Level Houston Center
01:44PM 30.4197 -90.9964 302° West 376 433 40,000  Level Houston Center
01:45PM 30.4744 -91.0972 304° West 376 433 40,000  Level Houston Center
01:46PM 30.5356 -91.2006 303° West 376 433 40,000  Level Houston Center
01:47PM 30.5942 -91.3039 303° West 381 438 40,000  Level Houston Center
01:48PM 30.6531 -91.4075 302° West 386 444 40,000  Level Houston Center
01:49PM 30.7094 -91.5114 302° West 386 444 40,000  Level Houston Center
01:50PM 30.7658 -91.6150 305° West 386 444 40,000  Level Houston Center
01:51PM 30.8264 -91.7142 302° West 381 438 40,000  Level Houston Center
01:52PM 30.8786 -91.8111 302° West 381 438 40,000  Level Houston Center
01:53PM 30.9325 -91.9103 303° West 381 438 40,000  Level Houston Center
01:54PM 30.9908 -92.0147 301° West 381 438 40,000  Level Houston Center
01:55PM 31.0428 -92.1167 294° West 381 438 40,000  Level Houston Center
01:56PM 31.0819 -92.2211 296° West 369 425 40,000  Level Houston Center
01:57PM 31.1272 -92.3306 293° West 369 425 40,000  Level Houston Center
01:58PM 31.1664 -92.4400 294° West 369 425 40,000  Level Houston Center
02:01PM 31.2628 -92.6917 296° West 355 409 40,000  Level Fort Worth Center
02:02PM 31.3086 -92.8011 292° West 360 414 40,000  Level Fort Worth Center
02:03PM 31.3461 -92.9114 293° West 365 420 40,000  Level Fort Worth Center
02:04PM 31.3853 -93.0214 294° West 365 420 40,000  Level Fort Worth Center
02:05PM 31.4267 -93.1289 293° West 370 426 40,000  Level Fort Worth Center
02:06PM 31.4658 -93.2389 294° West 370 426 40,000  Level Fort Worth Center
02:07PM 31.5069 -93.3469 294° West 370 426 40,000  Level Fort Worth Center
02:08PM 31.5481 -93.4547 293° West 370 426 40,000  Level Fort Worth Center
02:09PM 31.5867 -93.5628 294° West 370 426 40,000  Level Fort Worth Center
02:10PM 31.6275 -93.6683 292° West 365 420 40,000  Level Fort Worth Center
02:11PM 31.6664 -93.7814 293° West 374 430 40,000  Level Fort Worth Center
02:12PM 31.7094 -93.9019 293° West 362 417 40,000  Level Fort Worth Center
02:13PM 31.7456 -94.0006 294° West 367 422 40,000  Level Fort Worth Center
02:14PM 31.7858 -94.1067 292° West 367 422 40,000  Level Fort Worth Center
02:15PM 31.8308 -94.2347 293° West 367 422 40,000  Level Fort Worth Center
02:16PM 31.8714 -94.3458 293° West 367 422 40,000  Level Fort Worth Center
02:17PM 31.9117 -94.4594 294° West 367 422 40,000  Level Fort Worth Center
02:18PM 31.9539 -94.5731 293° West 372 428 40,000 -600 Level Fort Worth Center
02:19PM 31.9939 -94.6869 292° West 372 428 38,800 -1,620 Descending Fort Worth Center
02:20PM 32.0361 -94.8108 293° West 384 442 36,800 -2,100 Descending Fort Worth Center
02:21PM 32.0783 -94.9297 293° West 397 457 34,700 -2,100 Descending Fort Worth Center
02:22PM 32.1200 -95.0439 291° West 392 451 32,600 -2,100 Descending Fort Worth Center
02:23PM 32.1578 -95.1606 294° West 386 444 30,600 -2,100 Descending Fort Worth Center
02:24PM 32.2017 -95.2800 294° West 391 450 28,500 -1,980 Descending Fort Worth Center
02:25PM 32.2431 -95.3894 293° West 380 437 26,700 -1,980 Descending Fort Worth Center
02:26PM 32.2844 -95.5064 290° West 380 437 24,600 -2,280 Descending Fort Worth Center
02:27PM 32.3219 -95.6311 294° West 391 450 22,200 -2,400 Descending Fort Worth Center
02:28PM 32.3653 -95.7483 293° West 392 451 19,800 -2,280 Descending Fort Worth Center
02:29PM 32.4064 -95.8656 291° West 392 451 17,700 -2,340 Descending Fort Worth Center
02:30PM 32.4411 -95.9708 299° West 364 419 15,200 -2,400 Descending Fort Worth Center
02:31PM 32.4750 -96.0425 290° West 337 388 13,400 -2,280 Descending FAA TRACON SMA TRACON (SMA)
02:31PM 32.4978 -96.1150 292° West 340 391 11,900 -2,220 Descending FAA TRACON SMA TRACON (SMA)
02:32PM 32.5194 -96.1789 291° West 339 390 10,500 -2,100 Descending FAA TRACON SMA TRACON (SMA)
02:33PM 32.5411 -96.2469 291° West 313 360 9,200 -1,260 Descending FAA TRACON SMA TRACON (SMA)
02:33PM 32.5600 -96.3067 298° West 276 318 8,900 -540 Descending FAA TRACON SMA TRACON (SMA)
02:34PM 32.5817 -96.3547 304° West 268 308 8,500 -840 Descending FAA TRACON SMA TRACON (SMA)
02:35PM 32.6108 -96.4058 303° West 270 311 7,800 -1,020 Descending FAA TRACON SMA TRACON (SMA)
02:35PM 32.6364 -96.4522 304° West 274 315 7,200 -1,080 Descending FAA TRACON SMA TRACON (SMA)
02:36PM 32.6664 -96.5042 315° West 274 315 6,400 -1,140 Descending FAA TRACON SMA TRACON (SMA)
02:37PM 32.7022 -96.5472 316° Northwest 268 308 5,700 -1,140 Descending FAA TRACON SMA TRACON (SMA)
02:37PM 32.7381 -96.5883 317° Northwest 258 297 4,900 -600 Descending FAA TRACON SMA TRACON (SMA)
02:38PM 32.7708 -96.6253 316° Northwest 265 305 4,900  Level FAA TRACON SMA TRACON (SMA)
02:39PM 32.8092 -96.6686 316° Northwest 275 316 4,900 -480 Level FAA TRACON SMA TRACON (SMA)
02:39PM 32.8461 -96.7111 315° West 267 307 4,300 -720 Descending FAA TRACON SMA TRACON (SMA)
02:40PM 32.8769 -96.7483 314° West 258 297 4,000 -540 Descending FAA TRACON SMA TRACON (SMA)
02:41PM 32.9086 -96.7881 309° West 237 273 3,600 -480 Descending FAA TRACON SMA TRACON (SMA)
02:41PM 32.9361 -96.8289 253° West 233 268 3,400 -720 Descending FAA TRACON SMA TRACON (SMA)
02:42PM 32.9261 -96.8672 207° Southwest 208 239 2,700 -1,500 Descending FAA TRACON SMA TRACON (SMA)
02:43PM 32.8964 -96.8850 153° Southeast 178 205 1,500 -1,440 Descending FAA TRACON SMA TRACON (SMA)
02:43PM 32.8714 -96.8700 155° Southeast 145 167 800 -480 Descending FAA TRACON SMA TRACON (SMA)
02:45PM 32.8342 -96.8497 155° Southeast 95 109 500 -240 Descending Fort Worth Center